Time;durP1;ratioP1;P1;durP2;ratioP2;P2;SDS_P1;SDS_P2;PMS_P1;PMS_P2;Temp;Humidity;BMP_temperature;BMP_pressure;BME280_temperature;BME280_humidity;BME280_pressure;Samples;Min_cycle;Max_cycle;Signal;HPM_P1;HPM_P2
2023/02/04 00:01:45;;;;;;;3.60;2.65;;;7.70;99.90;;;;;;5092223;28;20028;-68
2023/02/04 00:04:12;;;;;;;5.53;3.08;;;7.70;99.90;;;;;;5090907;28;20430;-68
2023/02/04 00:06:38;;;;;;;6.50;3.30;;;7.70;99.90;;;;;;5091696;28;20052;-68
2023/02/04 00:09:04;;;;;;;3.80;3.05;;;7.70;99.90;;;;;;5089402;28;20063;-69
2023/02/04 00:11:29;;;;;;;4.93;2.97;;;7.60;99.90;;;;;;5091695;28;20513;-69
2023/02/04 00:13:55;;;;;;;3.58;3.28;;;7.50;99.90;;;;;;5084230;28;20488;-70
2023/02/04 00:16:20;;;;;;;3.63;2.70;;;7.40;99.90;;;;;;5094378;28;20031;-70
2023/02/04 00:18:46;;;;;;;4.97;2.65;;;7.50;99.90;;;;;;5096161;28;20028;-69
2023/02/04 00:21:11;;;;;;;3.35;2.72;;;7.40;99.90;;;;;;5098955;28;20384;-70
2023/02/04 00:23:37;;;;;;;3.13;2.83;;;7.40;99.90;;;;;;5093512;28;20023;-69
2023/02/04 00:26:03;;;;;;;3.10;2.50;;;7.40;99.90;;;;;;5089445;28;20056;-71
2023/02/04 00:28:28;;;;;;;2.53;2.33;;;7.50;99.90;;;;;;5087277;28;20032;-69
2023/02/04 00:30:54;;;;;;;2.72;2.00;;;7.50;99.90;;;;;;5082761;28;20077;-69
2023/02/04 00:33:20;;;;;;;2.65;2.00;;;7.50;99.90;;;;;;5088808;28;20026;-69
2023/02/04 00:35:45;;;;;;;2.15;1.60;;;7.50;99.90;;;;;;5090547;28;20025;-68
2023/02/04 00:38:11;;;;;;;3.08;1.92;;;7.50;99.90;;;;;;5091144;28;20028;-68
2023/02/04 00:40:36;;;;;;;3.22;1.98;;;7.50;99.90;;;;;;5091053;28;20107;-69
2023/02/04 00:43:03;;;;;;;2.00;1.58;;;7.50;99.90;;;;;;5091841;28;20388;-70
2023/02/04 00:45:28;;;;;;;3.67;1.70;;;7.50;99.90;;;;;;5087503;28;20032;-68
2023/02/04 00:47:54;;;;;;;3.50;1.70;;;7.60;99.90;;;;;;5104528;28;20426;-68
2023/02/04 00:50:20;;;;;;;3.53;1.98;;;7.60;99.90;;;;;;5104802;28;20251;-68
2023/02/04 00:52:45;;;;;;;3.55;1.65;;;7.70;99.90;;;;;;5094115;28;20020;-68
2023/02/04 00:55:14;;;;;;;2.00;1.85;;;7.70;99.90;;;;;;5085191;28;20035;-69
2023/02/04 00:57:40;;;;;;;3.03;1.70;;;7.60;99.90;;;;;;5094160;28;20060;-69
2023/02/04 01:00:07;;;;;;;3.10;2.40;;;7.60;99.90;;;;;;5093461;28;20101;-70
2023/02/04 01:02:33;;;;;;;3.38;2.47;;;7.70;99.90;;;;;;5093654;28;20028;-69
2023/02/04 01:04:58;;;;;;;3.42;2.45;;;7.70;99.90;;;;;;5093291;28;20052;-71
2023/02/04 01:07:24;;;;;;;4.93;3.47;;;7.50;99.90;;;;;;5093570;28;20385;-69
2023/02/04 01:09:49;;;;;;;3.63;3.28;;;7.40;99.90;;;;;;5095947;28;20095;-70
2023/02/04 01:12:15;;;;;;;3.95;3.40;;;7.30;99.90;;;;;;5088048;28;20028;-69
2023/02/04 01:14:40;;;;;;;5.38;3.85;;;7.20;99.90;;;;;;5097131;28;20045;-68
2023/02/04 01:17:06;;;;;;;6.00;4.00;;;7.10;99.90;;;;;;5089581;28;20024;-68
2023/02/04 01:19:31;;;;;;;5.55;3.85;;;7.10;99.90;;;;;;5095170;28;20369;-68
2023/02/04 01:21:57;;;;;;;7.22;4.28;;;7.10;99.90;;;;;;5106512;28;20023;-68
2023/02/04 01:24:23;;;;;;;5.88;4.50;;;7.00;99.90;;;;;;5086611;28;20072;-68
2023/02/04 01:26:48;;;;;;;5.43;4.35;;;7.00;99.90;;;;;;5091311;28;20381;-69
2023/02/04 01:29:14;;;;;;;7.20;4.68;;;6.90;99.90;;;;;;5093251;28;20027;-68
2023/02/04 01:31:39;;;;;;;7.18;4.80;;;7.00;99.90;;;;;;5090320;28;20412;-68
2023/02/04 01:34:06;;;;;;;7.30;5.05;;;6.80;99.90;;;;;;5092352;28;20096;-68
2023/02/04 01:36:31;;;;;;;6.13;4.97;;;6.80;99.90;;;;;;5093322;28;20035;-68
2023/02/04 01:38:59;;;;;;;9.45;4.72;;;6.80;99.90;;;;;;5092318;28;20024;-68
2023/02/04 01:41:26;;;;;;;7.10;4.55;;;6.70;99.90;;;;;;5094111;28;20032;-68
2023/02/04 01:43:52;;;;;;;6.15;4.72;;;6.70;99.90;;;;;;5086244;28;20028;-68
2023/02/04 01:46:18;;;;;;;4.65;3.55;;;6.60;99.90;;;;;;5090085;28;20471;-68
2023/02/04 01:48:44;;;;;;;3.55;2.88;;;6.70;99.90;;;;;;5100317;28;20095;-69
2023/02/04 01:51:13;;;;;;;4.95;1.98;;;6.80;99.90;;;;;;5094265;28;20107;-68
2023/02/04 01:53:39;;;;;;;3.95;1.73;;;6.80;99.90;;;;;;5104464;28;20032;-68
2023/02/04 01:56:18;;;;;;;5.32;1.60;;;6.80;99.90;;;;;;5092035;28;20526;-68
2023/02/04 01:58:44;;;;;;;4.50;1.48;;;6.80;99.90;;;;;;5092925;28;20024;-68
2023/02/04 02:01:31;;;;;;;3.00;1.58;;;6.80;99.90;;;;;;5090755;28;20038;-69
2023/02/04 02:03:57;;;;;;;5.70;1.38;;;6.80;99.90;;;;;;5092599;28;20131;-68
2023/02/04 02:06:23;;;;;;;7.28;1.85;;;6.70;99.90;;;;;;5093012;28;20056;-68
2023/02/04 02:08:48;;;;;;;7.57;2.53;;;6.70;99.90;;;;;;5092480;28;20456;-69
2023/02/04 02:11:14;;;;;;;2.85;1.25;;;6.70;99.90;;;;;;5073283;28;20035;-69
2023/02/04 02:13:40;;;;;;;7.32;1.25;;;6.70;99.90;;;;;;5092331;28;20036;-69
2023/02/04 02:16:05;;;;;;;4.03;1.35;;;6.80;99.90;;;;;;5090776;28;20067;-70
2023/02/04 02:18:31;;;;;;;4.05;1.50;;;6.70;99.90;;;;;;5093478;28;20032;-69
2023/02/04 02:21:02;;;;;;;4.82;1.40;;;6.60;99.90;;;;;;5088695;28;20510;-68
2023/02/04 02:23:49;;;;;;;5.38;1.50;;;6.60;99.90;;;;;;5092238;28;20099;-68
2023/02/04 02:26:16;;;;;;;7.47;1.30;;;6.60;99.90;;;;;;5096707;28;20055;-68
2023/02/04 02:28:42;;;;;;;9.50;1.30;;;6.60;99.90;;;;;;5084831;28;20376;-69
2023/02/04 02:31:08;;;;;;;5.72;1.50;;;6.60;99.90;;;;;;5091474;28;20028;-69
2023/02/04 02:33:34;;;;;;;6.93;1.77;;;6.60;99.90;;;;;;5083851;28;20024;-69
2023/02/04 02:36:00;;;;;;;7.97;1.98;;;6.50;99.90;;;;;;5093350;28;20417;-70
2023/02/04 02:38:26;;;;;;;9.55;1.58;;;6.50;99.90;;;;;;5089274;28;20137;-68
2023/02/04 02:40:52;;;;;;;7.80;1.95;;;6.60;99.90;;;;;;5086970;28;20444;-68
2023/02/04 02:43:24;;;;;;;6.50;1.85;;;6.60;99.90;;;;;;5076848;28;20086;-68
2023/02/04 02:45:50;;;;;;;8.77;1.42;;;6.50;99.90;;;;;;5090775;28;20023;-69
2023/02/04 02:48:16;;;;;;;10.38;2.00;;;6.50;99.90;;;;;;5101082;28;20039;-69
2023/02/04 02:50:42;;;;;;;10.13;1.92;;;6.50;99.90;;;;;;5094733;28;20023;-68
2023/02/04 02:53:13;;;;;;;8.40;2.08;;;6.40;99.90;;;;;;5098431;28;20043;-68
2023/02/04 02:55:39;;;;;;;7.80;1.70;;;6.50;99.90;;;;;;5092788;28;20431;-68
2023/02/04 02:58:16;;;;;;;6.18;1.60;;;6.40;99.90;;;;;;5072357;28;20032;-70
2023/02/04 03:00:42;;;;;;;8.05;1.98;;;6.30;99.90;;;;;;5079887;28;20376;-69
2023/02/04 03:03:14;;;;;;;12.13;2.40;;;6.20;99.90;;;;;;5081273;28;20413;-70
2023/02/04 03:05:42;;;;;;;11.32;2.25;;;6.30;99.90;;;;;;5103361;28;20032;-69
2023/02/04 03:08:09;;;;;;;11.70;3.35;;;6.20;99.90;;;;;;5087955;28;20089;-69
2023/02/04 03:10:35;;;;;;;7.75;1.60;;;6.20;99.90;;;;;;5091376;28;20107;-69
2023/02/04 03:13:01;;;;;;;5.88;1.52;;;6.20;99.90;;;;;;5091816;28;20035;-70
2023/02/04 03:15:27;;;;;;;7.18;1.67;;;6.20;99.90;;;;;;5091362;28;20564;-69
2023/02/04 03:17:55;;;;;;;6.03;1.75;;;6.20;99.90;;;;;;5090772;28;20115;-70
2023/02/04 03:20:26;;;;;;;11.48;3.33;;;6.20;99.90;;;;;;5087673;28;20610;-69
2023/02/04 03:22:52;;;;;;;8.82;1.63;;;6.10;99.90;;;;;;5096755;28;20081;-69
2023/02/04 03:25:19;;;;;;;8.85;2.15;;;6.10;99.90;;;;;;5090072;28;20032;-69
2023/02/04 03:27:45;;;;;;;9.93;1.92;;;6.10;99.90;;;;;;5089984;28;20060;-69
2023/02/04 03:30:11;;;;;;;10.95;1.83;;;6.00;99.90;;;;;;5090423;28;20098;-69
2023/02/04 03:32:37;;;;;;;10.88;2.10;;;6.00;99.90;;;;;;5091986;28;20464;-70
2023/02/04 03:35:03;;;;;;;10.70;2.63;;;6.10;99.90;;;;;;5095273;28;20434;-71
2023/02/04 03:37:28;;;;;;;13.25;2.80;;;6.10;99.90;;;;;;5091145;28;20028;-69
2023/02/04 03:39:54;;;;;;;7.57;2.42;;;6.10;99.90;;;;;;5091188;28;20081;-69
2023/02/04 03:42:20;;;;;;;5.72;1.85;;;6.20;99.90;;;;;;5091658;28;20201;-69
2023/02/04 03:44:45;;;;;;;8.27;2.17;;;6.20;99.90;;;;;;5088227;28;20032;-69
2023/02/04 03:47:11;;;;;;;8.30;2.20;;;6.10;99.90;;;;;;5099551;28;20040;-69
2023/02/04 03:49:36;;;;;;;4.07;1.40;;;6.20;99.90;;;;;;5090672;28;20439;-69
2023/02/04 03:52:03;;;;;;;4.60;1.60;;;6.10;99.90;;;;;;5074044;28;20036;-70
2023/02/04 03:54:29;;;;;;;7.85;2.22;;;6.10;99.90;;;;;;5090412;28;20032;-69
2023/02/04 03:56:55;;;;;;;7.85;3.35;;;6.10;99.90;;;;;;5089024;28;20169;-69
2023/02/04 03:59:20;;;;;;;7.35;2.03;;;6.10;99.90;;;;;;5087534;28;20468;-70
2023/02/04 04:01:46;;;;;;;8.20;2.22;;;6.10;99.90;;;;;;5094891;28;20030;-69
2023/02/04 04:04:11;;;;;;;9.88;2.72;;;6.00;99.90;;;;;;5098513;28;20040;-69
2023/02/04 04:06:37;;;;;;;9.95;2.15;;;6.00;99.90;;;;;;5089297;28;20028;-70
2023/02/04 04:09:03;;;;;;;8.45;2.13;;;5.90;99.90;;;;;;5089292;28;20028;-70
2023/02/04 04:11:29;;;;;;;10.85;2.63;;;5.90;99.90;;;;;;5096168;28;20453;-69
2023/02/04 04:13:55;;;;;;;10.10;2.92;;;5.90;99.90;;;;;;5095291;28;20376;-70
2023/02/04 04:16:21;;;;;;;9.57;2.38;;;5.90;99.90;;;;;;5093187;28;20036;-70
2023/02/04 04:18:46;;;;;;;10.15;2.60;;;5.90;99.90;;;;;;5085879;28;20128;-70
2023/02/04 04:21:12;;;;;;;6.00;1.92;;;6.00;99.90;;;;;;5097609;28;20077;-69
2023/02/04 04:23:38;;;;;;;8.02;2.38;;;6.00;99.90;;;;;;5094030;28;20024;-70
2023/02/04 04:26:03;;;;;;;10.65;2.00;;;6.00;99.90;;;;;;5094111;28;20048;-70
2023/02/04 04:28:29;;;;;;;12.10;2.63;;;6.00;99.90;;;;;;5100049;28;20031;-69
2023/02/04 04:30:54;;;;;;;10.18;2.45;;;6.00;99.90;;;;;;5093243;28;20136;-68
2023/02/04 04:33:20;;;;;;;8.90;2.65;;;6.00;99.90;;;;;;5091711;28;20040;-69
2023/02/04 04:35:45;;;;;;;6.45;2.53;;;5.90;99.90;;;;;;5087121;28;20536;-69
2023/02/04 04:38:11;;;;;;;5.40;2.13;;;6.00;99.90;;;;;;5094490;28;20036;-70
2023/02/04 04:40:37;;;;;;;11.35;2.33;;;5.90;99.90;;;;;;5095363;28;20469;-69
2023/02/04 04:43:02;;;;;;;5.57;2.25;;;5.90;99.90;;;;;;5094992;28;20111;-70
2023/02/04 04:45:28;;;;;;;11.90;2.80;;;5.90;99.90;;;;;;5089725;28;20071;-68
2023/02/04 04:47:54;;;;;;;10.57;2.75;;;6.00;99.90;;;;;;5098595;28;20023;-69
2023/02/04 04:50:19;;;;;;;5.63;2.67;;;6.00;99.90;;;;;;5093307;28;20020;-69
2023/02/04 04:52:45;;;;;;;7.47;2.20;;;6.00;99.90;;;;;;5086173;28;20020;-69
2023/02/04 04:55:10;;;;;;;5.32;2.47;;;5.90;99.90;;;;;;5092749;28;20067;-69
2023/02/04 04:57:36;;;;;;;7.10;2.30;;;5.90;99.90;;;;;;5095528;28;20024;-69
2023/02/04 05:00:04;;;;;;;6.88;2.17;;;5.90;99.90;;;;;;5089648;28;20070;-70
2023/02/04 05:02:29;;;;;;;10.27;2.65;;;6.00;99.90;;;;;;5098436;28;20468;-68
2023/02/04 05:04:55;;;;;;;7.70;2.60;;;6.00;99.90;;;;;;5094152;28;20043;-69
2023/02/04 05:07:21;;;;;;;6.45;2.58;;;5.90;99.90;;;;;;5095011;28;20208;-68
2023/02/04 05:09:46;;;;;;;10.27;3.30;;;5.90;99.90;;;;;;5093235;28;20042;-69
2023/02/04 05:12:12;;;;;;;7.90;2.80;;;5.80;99.90;;;;;;5094043;28;20044;-68
2023/02/04 05:14:37;;;;;;;10.73;3.45;;;5.80;99.90;;;;;;5093241;28;20036;-68
2023/02/04 05:17:03;;;;;;;6.53;3.10;;;5.80;99.90;;;;;;5089793;28;20043;-68
2023/02/04 05:19:28;;;;;;;7.72;2.95;;;5.90;99.90;;;;;;5089171;28;20457;-68
2023/02/04 05:21:54;;;;;;;6.07;2.85;;;5.90;99.90;;;;;;5094937;28;20024;-69
2023/02/04 05:24:20;;;;;;;10.60;3.10;;;5.90;99.90;;;;;;5092121;28;20032;-68
2023/02/04 05:26:45;;;;;;;5.57;2.63;;;5.90;99.90;;;;;;5086929;28;20043;-68
2023/02/04 05:29:11;;;;;;;6.50;3.08;;;5.80;99.90;;;;;;5091689;28;20043;-68
2023/02/04 05:31:37;;;;;;;12.48;4.65;;;5.80;99.90;;;;;;5093528;28;20138;-67
2023/02/04 05:34:03;;;;;;;8.73;3.47;;;5.80;99.90;;;;;;5093975;28;20070;-69
2023/02/04 05:36:29;;;;;;;11.95;4.68;;;5.80;99.90;;;;;;5094564;28;20028;-68
2023/02/04 05:38:54;;;;;;;15.15;3.90;;;5.90;99.90;;;;;;5092656;28;20115;-68
2023/02/04 05:41:20;;;;;;;11.73;5.35;;;5.90;99.90;;;;;;5089670;28;20028;-68
2023/02/04 05:43:45;;;;;;;8.05;3.85;;;5.80;99.90;;;;;;5088777;28;20035;-69
2023/02/04 05:46:11;;;;;;;13.45;4.72;;;5.80;99.90;;;;;;5083712;28;20031;-68
2023/02/04 05:48:38;;;;;;;15.68;4.40;;;5.80;99.90;;;;;;5092448;28;20031;-68
2023/02/04 05:51:04;;;;;;;10.77;4.03;;;5.80;99.90;;;;;;5090048;28;20027;-68
2023/02/04 05:53:30;;;;;;;10.15;4.55;;;5.80;99.90;;;;;;5093291;28;20028;-69
2023/02/04 05:55:56;;;;;;;17.50;5.13;;;5.90;99.90;;;;;;5092633;28;20031;-69
2023/02/04 05:58:21;;;;;;;16.95;4.07;;;5.80;99.90;;;;;;5090176;28;20035;-68
2023/02/04 06:00:47;;;;;;;15.27;4.82;;;5.80;99.90;;;;;;5089596;28;20032;-68
2023/02/04 06:03:13;;;;;;;9.23;4.18;;;5.80;99.90;;;;;;5091496;28;20117;-68
2023/02/04 06:05:39;;;;;;;10.55;4.18;;;5.70;99.90;;;;;;5095252;28;20047;-68
2023/02/04 06:08:04;;;;;;;11.45;4.53;;;5.70;99.90;;;;;;5084449;28;20040;-69
2023/02/04 06:10:30;;;;;;;15.70;4.63;;;5.70;99.90;;;;;;5088962;28;20028;-69
2023/02/04 06:12:56;;;;;;;11.82;4.70;;;5.70;99.90;;;;;;5091378;28;20051;-69
2023/02/04 06:15:21;;;;;;;16.92;4.90;;;5.60;99.90;;;;;;5091716;28;20115;-69
2023/02/04 06:17:47;;;;;;;17.65;4.88;;;5.60;99.90;;;;;;5093745;28;20059;-69
2023/02/04 06:20:13;;;;;;;17.25;4.85;;;5.60;99.90;;;;;;5091289;28;20044;-69
2023/02/04 06:22:39;;;;;;;15.07;4.88;;;5.60;99.90;;;;;;5093151;28;20039;-69
2023/02/04 06:25:05;;;;;;;12.77;5.00;;;5.60;99.90;;;;;;5074926;28;20389;-69
2023/02/04 06:27:31;;;;;;;11.07;4.97;;;5.60;99.90;;;;;;5079779;28;20805;-70
2023/02/04 06:29:56;;;;;;;13.77;4.75;;;5.50;99.90;;;;;;5081731;28;20100;-69
2023/02/04 06:32:22;;;;;;;20.02;5.20;;;5.50;99.90;;;;;;5071560;28;20035;-70
2023/02/04 06:34:48;;;;;;;17.65;4.90;;;5.50;99.90;;;;;;5094131;28;20036;-70
2023/02/04 06:37:15;;;;;;;20.33;5.28;;;5.40;99.90;;;;;;5085936;28;20027;-70
2023/02/04 06:39:42;;;;;;;17.73;5.68;;;5.40;99.90;;;;;;5091938;28;20023;-69
2023/02/04 06:42:08;;;;;;;19.75;6.97;;;5.40;99.90;;;;;;5090818;28;20520;-69
2023/02/04 06:44:33;;;;;;;16.27;5.78;;;5.50;99.90;;;;;;5090297;28;20153;-68
2023/02/04 06:46:59;;;;;;;22.10;5.70;;;5.40;99.90;;;;;;5090149;28;20380;-70
2023/02/04 06:49:25;;;;;;;24.83;6.28;;;5.40;99.90;;;;;;5092097;28;20024;-69
2023/02/04 06:51:51;;;;;;;18.42;6.00;;;5.50;99.90;;;;;;5093559;28;20551;-70
2023/02/04 06:54:17;;;;;;;19.08;5.75;;;5.50;99.90;;;;;;5082232;28;20028;-69
2023/02/04 06:56:43;;;;;;;21.23;5.75;;;5.40;99.90;;;;;;5073709;28;20379;-70
2023/02/04 06:59:09;;;;;;;21.65;6.18;;;5.40;99.90;;;;;;5082490;28;20047;-70
2023/02/04 07:01:35;;;;;;;14.65;5.10;;;5.40;99.90;;;;;;5082901;28;20331;-69
2023/02/04 07:04:00;;;;;;;17.15;5.45;;;5.40;99.90;;;;;;5091712;28;20042;-70
2023/02/04 07:06:26;;;;;;;19.17;5.47;;;5.40;99.90;;;;;;5088958;28;20463;-69
2023/02/04 07:08:52;;;;;;;20.63;5.05;;;5.40;99.90;;;;;;5075369;28;20398;-69
2023/02/04 07:11:17;;;;;;;20.35;5.55;;;5.40;99.90;;;;;;5090496;28;20097;-70
2023/02/04 07:13:43;;;;;;;31.60;7.07;;;5.40;99.90;;;;;;5091283;28;20039;-69
2023/02/04 07:16:08;;;;;;;20.92;6.47;;;5.40;99.90;;;;;;5082564;28;20028;-69
2023/02/04 07:18:34;;;;;;;22.98;5.75;;;5.40;99.90;;;;;;5088264;28;20105;-69
2023/02/04 07:21:00;;;;;;;20.20;5.82;;;5.40;99.90;;;;;;5085492;28;20024;-70
2023/02/04 07:23:26;;;;;;;23.17;5.70;;;5.40;99.90;;;;;;5090354;28;20030;-70
2023/02/04 07:25:52;;;;;;;23.27;6.00;;;5.40;99.90;;;;;;5088416;28;20093;-70
2023/02/04 07:28:18;;;;;;;21.35;6.38;;;5.50;99.90;;;;;;5092359;28;20032;-68
2023/02/04 07:30:45;;;;;;;21.52;6.53;;;5.60;99.90;;;;;;5087213;28;20054;-69
2023/02/04 07:33:10;;;;;;;14.07;4.78;;;5.60;99.90;;;;;;5068669;28;20028;-69
2023/02/04 07:35:39;;;;;;;21.08;4.70;;;5.50;99.90;;;;;;5087145;28;21391;-69
2023/02/04 07:38:05;;;;;;;26.13;5.22;;;5.50;99.90;;;;;;5091782;28;20024;-70
2023/02/04 07:40:31;;;;;;;16.05;6.15;;;5.40;99.90;;;;;;5089956;28;20065;-69
2023/02/04 07:42:56;;;;;;;19.63;5.18;;;5.50;99.90;;;;;;5090378;28;20108;-69
2023/02/04 07:45:22;;;;;;;15.35;5.13;;;5.50;99.90;;;;;;5086732;28;20020;-69
2023/02/04 07:47:48;;;;;;;20.83;5.57;;;5.60;99.90;;;;;;5072127;28;20113;-69
2023/02/04 07:50:14;;;;;;;24.00;5.57;;;5.50;99.90;;;;;;5086829;28;20032;-69
2023/02/04 07:52:41;;;;;;;21.15;5.20;;;5.50;99.90;;;;;;5093868;28;20028;-69
2023/02/04 07:55:07;;;;;;;19.60;4.32;;;5.60;99.90;;;;;;5089584;28;20024;-69
2023/02/04 07:57:33;;;;;;;20.50;4.57;;;5.70;99.90;;;;;;5090729;28;20534;-69
2023/02/04 07:59:59;;;;;;;19.00;4.47;;;5.70;99.90;;;;;;5087724;28;20070;-70
2023/02/04 08:02:24;;;;;;;19.73;4.80;;;5.70;99.90;;;;;;5088811;28;20118;-69
2023/02/04 08:04:50;;;;;;;21.38;4.28;;;5.70;99.90;;;;;;5085759;28;20032;-69
2023/02/04 08:07:16;;;;;;;19.98;3.88;;;5.70;99.90;;;;;;5086781;28;20027;-72
2023/02/04 08:09:41;;;;;;;22.42;4.25;;;5.80;99.90;;;;;;5074459;28;20032;-76
2023/02/04 08:12:07;;;;;;;17.98;4.07;;;5.80;99.90;;;;;;5089194;28;20027;-72
2023/02/04 08:14:33;;;;;;;27.40;4.72;;;5.70;99.90;;;;;;5083480;28;20461;-72
2023/02/04 08:16:58;;;;;;;16.95;4.10;;;5.70;99.90;;;;;;5084538;28;20115;-73
2023/02/04 08:19:24;;;;;;;14.25;3.75;;;5.90;99.90;;;;;;5069268;28;20039;-71
2023/02/04 08:21:49;;;;;;;20.83;4.35;;;5.80;99.90;;;;;;5088149;28;20056;-71
2023/02/04 08:24:16;;;;;;;15.80;3.70;;;5.70;99.90;;;;;;5089851;28;20040;-71
2023/02/04 08:26:43;;;;;;;14.77;3.92;;;5.70;99.90;;;;;;5088702;28;20054;-71
2023/02/04 08:29:09;;;;;;;16.88;4.03;;;5.80;99.90;;;;;;5080928;28;20066;-72
2023/02/04 08:31:36;;;;;;;15.68;4.57;;;5.70;99.90;;;;;;5087197;28;20020;-73
2023/02/04 08:34:05;;;;;;;23.45;4.88;;;5.70;99.90;;;;;;5090013;28;20036;-74
2023/02/04 08:36:31;;;;;;;16.95;4.15;;;5.70;99.90;;;;;;5086736;28;20032;-74
2023/02/04 08:38:57;;;;;;;17.63;4.03;;;5.70;99.90;;;;;;5089135;28;20032;-73
2023/02/04 08:41:23;;;;;;;15.50;3.70;;;5.60;99.90;;;;;;5085624;28;20024;-70
2023/02/04 08:43:48;;;;;;;18.33;4.30;;;5.60;99.90;;;;;;5090742;28;20028;-72
2023/02/04 08:46:14;;;;;;;21.20;4.50;;;5.60;99.90;;;;;;5081568;28;20479;-71
2023/02/04 08:48:39;;;;;;;16.73;4.25;;;5.60;99.90;;;;;;5083165;28;20406;-70
2023/02/04 08:51:05;;;;;;;19.67;4.68;;;5.50;99.90;;;;;;5085978;28;20046;-72
2023/02/04 08:53:30;;;;;;;22.00;4.43;;;5.50;99.90;;;;;;5088647;28;20107;-80
2023/02/04 08:55:56;;;;;;;14.10;4.45;;;5.50;99.90;;;;;;5090588;28;20027;-73
2023/02/04 08:58:21;;;;;;;19.00;4.68;;;5.50;99.90;;;;;;5077814;28;20173;-71
2023/02/04 09:00:47;;;;;;;21.98;4.88;;;5.60;99.90;;;;;;5085587;28;20016;-74
2023/02/04 09:03:13;;;;;;;19.55;6.30;;;5.50;99.90;;;;;;5090039;28;20460;-72
2023/02/04 09:05:38;;;;;;;22.33;5.82;;;5.50;99.90;;;;;;5088014;28;20504;-78
2023/02/04 09:08:04;;;;;;;18.75;5.85;;;5.50;99.90;;;;;;5078611;28;20034;-73
2023/02/04 09:10:30;;;;;;;15.32;5.25;;;5.70;99.90;;;;;;5090075;28;20055;-72
2023/02/04 09:12:56;;;;;;;17.73;5.18;;;5.60;99.90;;;;;;5093149;28;20477;-74
2023/02/04 09:15:23;;;;;;;17.10;4.55;;;5.60;99.90;;;;;;5086608;28;20378;-72
2023/02/04 09:17:50;;;;;;;17.40;5.03;;;5.60;99.90;;;;;;5094062;28;20066;-72
2023/02/04 09:20:15;;;;;;;20.90;6.40;;;5.60;99.90;;;;;;5088198;28;20028;-72
2023/02/04 09:22:41;;;;;;;15.95;5.88;;;5.60;99.90;;;;;;5096383;28;20020;-71
2023/02/04 09:25:07;;;;;;;25.48;7.32;;;5.60;99.90;;;;;;5089208;28;20035;-71
2023/02/04 09:27:33;;;;;;;19.92;8.35;;;5.80;99.90;;;;;;5071412;28;20488;-71
2023/02/04 09:29:59;;;;;;;23.23;6.35;;;5.80;99.90;;;;;;5069520;28;20039;-72
2023/02/04 09:32:25;;;;;;;26.10;7.32;;;5.90;99.90;;;;;;5069190;28;20517;-72
2023/02/04 09:34:50;;;;;;;21.25;6.60;;;5.90;99.90;;;;;;5068825;28;20134;-71
2023/02/04 09:37:16;;;;;;;18.30;6.07;;;6.10;99.90;;;;;;5072440;28;20063;-70
2023/02/04 09:39:42;;;;;;;17.67;6.40;;;6.20;99.90;;;;;;5070447;28;20416;-70
2023/02/04 09:42:12;;;;;;;18.95;6.78;;;6.20;99.90;;;;;;5069942;28;20115;-71
2023/02/04 09:44:38;;;;;;;21.55;5.28;;;6.30;99.90;;;;;;5074149;28;20088;-70
2023/02/04 09:47:04;;;;;;;20.65;4.28;;;6.40;99.90;;;;;;5070779;28;20036;-73
2023/02/04 09:49:30;;;;;;;17.73;4.07;;;6.70;99.90;;;;;;5069134;28;20033;-71
2023/02/04 09:51:56;;;;;;;15.77;3.75;;;6.90;99.90;;;;;;5071357;28;20017;-72
2023/02/04 09:54:22;;;;;;;19.52;3.83;;;7.20;99.90;;;;;;5052417;28;20088;-72
2023/02/04 09:56:49;;;;;;;11.57;3.55;;;7.40;99.90;;;;;;5071426;28;20032;-70
2023/02/04 09:59:17;;;;;;;20.00;3.60;;;7.70;99.90;;;;;;5062078;28;20063;-70
2023/02/04 10:01:44;;;;;;;15.45;3.65;;;;;;;;;;5072800;28;20028;-71
2023/02/04 10:04:12;;;;;;;10.85;2.58;;;;;;;;;;5067914;28;20028;-72
2023/02/04 10:06:38;;;;;;;13.27;3.35;;;;;;;;;;5072344;28;20124;-71
2023/02/04 10:09:04;;;;;;;14.45;3.17;;;;;;;;;;5051193;28;20031;-72
2023/02/04 10:11:33;;;;;;;22.33;3.72;;;;;;;;;;5068471;28;20044;-70
2023/02/04 10:13:59;;;;;;;13.75;3.28;;;;;;;;;;5062155;28;20035;-72
2023/02/04 10:16:28;;;;;;;22.52;3.70;;;;;;;;;;5071661;28;20028;-69
2023/02/04 10:19:04;;;;;;;25.45;6.55;;;;;;;;;;5080813;28;20028;-69
2023/02/04 10:21:31;;;;;;;24.27;6.93;;;;;;;;;;5078492;28;20020;-70
2023/02/04 10:23:58;;;;;;;19.90;4.95;;;;;;;;;;5084567;28;20495;-70
2023/02/04 10:26:28;;;;;;;20.05;3.65;;;;;;;;;;5085976;27;20056;-69
2023/02/04 10:28:54;;;;;;;;;;;;;;;;;;5099013;28;20531;-70
2023/02/04 10:31:40;;;;;;;16.67;3.10;;;;;;;;;;5098481;28;19999;-69
2023/02/04 10:34:07;;;;;;;16.75;3.13;;;;;;;;;;5087645;28;20411;-70
2023/02/04 10:36:33;;;;;;;17.00;3.70;;;;;;;;;;5097939;28;20051;-70
2023/02/04 10:39:01;;;;;;;13.70;3.10;;;;;;;;;;5091071;28;20059;-73
2023/02/04 10:41:27;;;;;;;17.30;2.85;;;;;;;;;;5091904;28;20036;-68
2023/02/04 10:44:03;;;;;;;21.63;3.67;;;;;;;;;;5089917;28;20099;-67
2023/02/04 10:46:30;;;;;;;20.98;2.92;;;;;;;;;;5091439;28;20032;-69
2023/02/04 10:48:57;;;;;;;17.33;3.42;;;;;;;;;;5101343;28;20426;-68
2023/02/04 10:51:23;;;;;;;17.00;3.33;;;;;;;;;;5095575;28;20080;-68
2023/02/04 10:56:47;;;;;;;11.57;3.03;;;;;;;;;;5015591;28;20032;-69
2023/02/04 10:59:20;;;;;;;10.02;2.47;;;;;;;;;;5089597;28;20016;-71
2023/02/04 11:01:46;;;;;;;15.70;2.80;;;;;;;;;;5091028;28;20088;-72
2023/02/04 11:04:12;;;;;;;14.32;2.50;;;;;;;;;;5092146;28;20107;-71
2023/02/04 11:06:38;;;;;;;10.77;2.50;;;;;;;;;;5098716;28;20038;-71
2023/02/04 11:09:04;;;;;;;16.48;2.75;;;;;;;;;;5087930;28;20402;-72
2023/02/04 11:11:30;;;;;;;17.77;2.80;;;;;;;;;;5088650;28;20012;-72
2023/02/04 11:13:56;;;;;;;13.23;3.00;;;;;;;;;;5090519;28;20496;-67
2023/02/04 11:16:25;;;;;;;14.90;2.78;;;;;;;;;;5090394;28;20016;-68
2023/02/04 11:18:53;;;;;;;15.98;2.88;;;;;;;;;;5091070;28;20055;-67
2023/02/04 11:21:26;;;;;;;16.08;2.85;;;;;;;;;;5092160;28;20031;-71
2023/02/04 11:24:11;;;;;;;22.08;3.17;;;;;;;;;;5094931;28;20508;-71
2023/02/04 11:26:37;;;;;;;18.90;3.97;;;;;;;;;;5081790;28;20055;-70
2023/02/04 11:29:03;;;;;;;19.52;4.13;;;;;;;;;;5084463;28;20028;-72
2023/02/04 11:31:41;;;;;;;15.85;3.38;;;;;;;;;;5083632;28;20020;-71
2023/02/04 11:34:09;;;;;;;16.35;3.38;;;;;;;;;;5090621;28;20050;-71
2023/02/04 11:36:35;;;;;;;12.55;2.58;;;;;;;;;;5096851;28;20027;-70
2023/02/04 11:39:13;;;;;;;16.67;3.10;;;;;;;;;;5090763;28;20070;-72
2023/02/04 11:41:42;;;;;;;16.58;3.20;;;;;;;;;;5091418;28;20023;-70
2023/02/04 11:44:09;;;;;;;19.58;3.10;;;;;;;;;;5090144;28;20021;-68
2023/02/04 11:46:35;;;;;;;23.15;4.00;;;;;;;;;;5088116;28;20032;-70
2023/02/04 11:49:01;;;;;;;29.48;3.40;;;;;;;;;;5078556;28;20538;-72
2023/02/04 11:51:32;;;;;;;17.55;3.92;;;;;;;;;;5081016;28;20017;-71
2023/02/04 11:53:58;;;;;;;15.48;3.70;;;;;;;;;;5092272;28;20062;-70
2023/02/04 11:56:27;;;;;;;19.98;3.30;;;;;;;;;;5092740;28;20474;-71
2023/02/04 11:58:55;;;;;;;19.88;3.25;;;;;;;;;;5086074;28;20020;-72
2023/02/04 12:01:23;;;;;;;21.63;3.33;;;;;;;;;;5095125;28;20758;-72
2023/02/04 12:03:50;;;;;;;10.63;3.28;;;;;;;;;;5092932;28;20107;-73
2023/02/04 12:06:20;;;;;;;16.48;4.20;;;;;;;;;;5076218;28;20025;-71
2023/02/04 12:08:46;;;;;;;17.58;3.10;;;;;;;;;;5090267;28;20028;-72
2023/02/04 12:11:29;;;;;;;13.32;2.65;;;;;;;;;;5096491;28;20051;-72
2023/02/04 12:13:55;;;;;;;11.13;2.63;;;;;;;;;;5096446;28;20069;-70
2023/02/04 12:16:21;;;;;;;10.60;2.55;;;;;;;;;;5091456;28;20020;-70
2023/02/04 12:18:48;;;;;;;13.32;2.42;;;;;;;;;;5101300;28;20095;-71
2023/02/04 12:21:14;;;;;;;12.48;2.83;;;;;;;;;;5088874;28;20024;-71
2023/02/04 12:23:41;;;;;;;9.20;2.20;;;;;;;;;;5088551;28;20032;-71
2023/02/04 12:26:07;;;;;;;12.48;2.55;;;;;;;;;;5096766;28;20120;-72
2023/02/04 12:28:33;;;;;;;14.48;2.97;;;;;;;;;;5090150;28;20369;-72
2023/02/04 12:30:59;;;;;;;15.20;2.80;;;;;;;;;;5090733;28;20031;-71
2023/02/04 12:33:25;;;;;;;15.45;2.85;;;;;;;;;;5076350;28;20028;-71
2023/02/04 12:35:51;;;;;;;15.95;2.40;;;;;;;;;;5103737;28;20382;-71
2023/02/04 12:38:18;;;;;;;14.75;2.67;;;;;;;;;;5098994;28;20019;-71
2023/02/04 12:40:44;;;;;;;9.82;2.30;;;;;;;;;;5088418;28;20023;-72
2023/02/04 12:43:10;;;;;;;15.85;3.22;;;;;;;;;;5096864;28;20460;-72
2023/02/04 12:45:37;;;;;;;18.75;2.72;;;;;;;;;;5094252;28;20031;-72
2023/02/04 12:48:03;;;;;;;11.85;2.30;;;;;;;;;;5092112;28;20074;-71
2023/02/04 12:50:29;;;;;;;13.63;2.13;;;;;;;;;;5093631;28;20028;-72
2023/02/04 12:52:56;;;;;;;16.63;3.08;;;;;;;;;;5099753;28;20024;-72
2023/02/04 12:55:23;;;;;;;9.07;2.20;;;;;;;;;;5092798;28;20028;-71
2023/02/04 12:57:49;;;;;;;11.40;1.88;;;;;;;;;;5098269;28;20031;-71
2023/02/04 13:00:16;;;;;;;10.38;2.50;;;;;;;;;;5092530;28;20020;-72
2023/02/04 13:02:43;;;;;;;14.88;2.58;;;;;;;;;;5093929;28;20058;-72
2023/02/04 13:05:09;;;;;;;10.07;2.33;;;;;;;;;;5099672;28;20035;-72
2023/02/04 13:07:35;;;;;;;12.60;2.13;;;;;;;;;;5093746;28;20021;-72
2023/02/04 13:10:01;;;;;;;17.90;2.80;;;;;;;;;;5104140;28;20189;-73
2023/02/04 13:12:27;;;;;;;18.77;3.55;;;;;;;;;;5093878;28;20516;-70